createdAt,value
2018-12-09T00:00:41.252Z,929.72
2018-12-09T00:02:12.733Z,929.68
2018-12-09T00:03:44.290Z,929.68
2018-12-09T00:05:15.862Z,929.59
2018-12-09T00:06:47.437Z,929.74
2018-12-09T00:08:19.002Z,929.69
2018-12-09T00:09:50.604Z,929.72
2018-12-09T00:11:22.137Z,929.61
2018-12-09T00:12:53.709Z,929.70
2018-12-09T00:14:25.276Z,929.70
2018-12-09T00:15:56.846Z,929.77
2018-12-09T00:17:28.415Z,929.78
2018-12-09T00:19:00.136Z,929.80
2018-12-09T00:20:31.557Z,929.86
2018-12-09T00:22:03.123Z,929.87
2018-12-09T00:23:34.693Z,929.92
2018-12-09T00:25:06.269Z,929.94
2018-12-09T00:26:37.831Z,929.96
2018-12-09T00:28:09.452Z,929.97
2018-12-09T00:29:40.970Z,930.05
2018-12-09T00:31:12.539Z,930.03
2018-12-09T00:32:44.112Z,930.01
2018-12-09T00:34:15.681Z,930.08
2018-12-09T00:35:47.251Z,929.96
2018-12-09T00:37:18.917Z,930.08
2018-12-09T00:38:50.388Z,930.10
2018-12-09T00:40:21.956Z,930.10
2018-12-09T00:41:53.526Z,930.15
2018-12-09T00:43:25.094Z,930.19
2018-12-09T00:44:56.664Z,930.25
2018-12-09T00:46:28.233Z,930.29
2018-12-09T00:47:59.803Z,930.15
2018-12-09T00:49:31.372Z,930.30
2018-12-09T00:51:02.942Z,930.28
2018-12-09T00:52:34.511Z,930.20
2018-12-09T00:54:06.079Z,930.22
2018-12-09T00:55:37.750Z,930.22
2018-12-09T00:57:09.221Z,930.33
2018-12-09T00:58:40.790Z,930.28
2018-12-09T01:00:12.362Z,930.29
2018-12-09T01:01:43.927Z,930.24
2018-12-09T01:03:15.499Z,930.35
2018-12-09T01:04:47.067Z,930.35
2018-12-09T01:06:18.635Z,930.38
2018-12-09T01:07:50.207Z,930.40
2018-12-09T01:09:21.773Z,930.42
2018-12-09T01:10:53.343Z,930.42
2018-12-09T01:12:24.912Z,930.45
2018-12-09T01:13:56.581Z,930.47
2018-12-09T01:15:28.051Z,930.53
2018-12-09T01:16:59.621Z,930.49
2018-12-09T01:18:31.190Z,930.56
2018-12-09T01:20:02.760Z,930.55
2018-12-09T01:21:34.328Z,930.57
2018-12-09T01:23:05.897Z,930.57
2018-12-09T01:24:37.467Z,930.41
2018-12-09T01:26:09.036Z,930.51
2018-12-09T01:27:40.605Z,930.51
2018-12-09T01:29:12.175Z,930.46
2018-12-09T01:30:43.745Z,930.54
2018-12-09T01:32:15.414Z,930.57
2018-12-09T01:33:46.884Z,930.62
2018-12-09T01:35:18.452Z,930.56
2018-12-09T01:36:50.021Z,930.57
2018-12-09T01:38:21.591Z,930.51
2018-12-09T01:39:53.160Z,930.55
2018-12-09T01:41:24.729Z,930.46
2018-12-09T01:42:56.300Z,930.53
2018-12-09T01:44:27.867Z,930.57
2018-12-09T01:45:59.437Z,930.46
2018-12-09T01:47:31.007Z,930.52
2018-12-09T01:49:02.584Z,930.42
2018-12-09T01:50:34.246Z,930.46
2018-12-09T01:52:05.715Z,930.38
2018-12-09T01:53:37.285Z,930.45
2018-12-09T01:55:08.855Z,930.41
2018-12-09T01:56:40.424Z,930.44
2018-12-09T01:58:11.993Z,930.48
2018-12-09T01:59:43.570Z,930.45
2018-12-09T02:01:15.132Z,930.52
2018-12-09T02:02:46.702Z,930.52
2018-12-09T02:04:18.271Z,930.55
2018-12-09T02:05:49.841Z,930.54
2018-12-09T02:07:21.409Z,930.57
2018-12-09T02:08:53.080Z,930.41
2018-12-09T02:10:24.548Z,930.48
2018-12-09T02:11:56.120Z,930.42
2018-12-09T02:13:27.687Z,930.45
2018-12-09T02:14:59.258Z,930.37
2018-12-09T02:16:30.826Z,930.40
2018-12-09T02:18:02.398Z,930.38
2018-12-09T02:19:33.964Z,930.36
2018-12-09T02:21:05.534Z,930.30
2018-12-09T02:22:37.104Z,930.26
2018-12-09T02:24:08.673Z,930.26
2018-12-09T02:25:40.243Z,930.19
2018-12-09T02:27:11.912Z,930.27
2018-12-09T02:28:43.382Z,930.21
2018-12-09T02:30:14.952Z,930.28
2018-12-09T02:31:46.527Z,930.26
2018-12-09T02:33:18.090Z,930.32
2018-12-09T02:34:49.660Z,930.20
2018-12-09T02:36:21.230Z,930.25
2018-12-09T02:37:52.800Z,930.19
2018-12-09T02:39:24.368Z,930.17
2018-12-09T02:40:55.940Z,930.16
2018-12-09T02:42:27.509Z,930.20
2018-12-09T02:43:59.079Z,930.19
2018-12-09T02:45:31.197Z,930.20
2018-12-09T02:47:02.216Z,930.15
2018-12-09T02:48:33.786Z,930.27
2018-12-09T02:50:05.360Z,930.19
2018-12-09T02:51:36.923Z,930.11
2018-12-09T02:53:08.493Z,930.15
2018-12-09T02:54:40.063Z,930.16
2018-12-09T02:56:11.632Z,930.18
2018-12-09T02:57:43.202Z,930.18
2018-12-09T02:59:14.770Z,930.15
2018-12-09T03:00:46.339Z,930.11
2018-12-09T03:02:17.910Z,930.07
2018-12-09T03:03:49.579Z,930.06
2018-12-09T03:05:21.148Z,930.02
2018-12-09T03:06:52.691Z,930.06
2018-12-09T03:08:24.188Z,929.96
2018-12-09T03:09:55.755Z,929.94
2018-12-09T03:11:27.325Z,929.88
2018-12-09T03:12:58.893Z,929.90
2018-12-09T03:14:30.462Z,929.82
2018-12-09T03:16:02.032Z,929.78
2018-12-09T03:17:33.612Z,929.78
2018-12-09T03:19:05.170Z,929.72
2018-12-09T03:20:36.740Z,929.71
2018-12-09T03:22:08.407Z,929.65
2018-12-09T03:23:39.876Z,929.61
2018-12-09T03:25:11.446Z,929.63
2018-12-09T03:26:43.016Z,929.61
2018-12-09T03:28:14.584Z,929.53
2018-12-09T03:29:46.154Z,929.57
2018-12-09T03:31:17.724Z,929.56
2018-12-09T03:32:49.297Z,929.62
2018-12-09T03:34:20.860Z,929.45
2018-12-09T03:35:52.431Z,929.54
2018-12-09T03:37:23.999Z,929.44
2018-12-09T03:38:55.567Z,929.49
2018-12-09T03:40:27.246Z,929.54
2018-12-09T03:41:58.706Z,929.51
2018-12-09T03:43:30.276Z,929.49
2018-12-09T03:45:01.843Z,929.45
2018-12-09T03:46:33.413Z,929.43
2018-12-09T03:48:04.982Z,929.43
2018-12-09T03:49:36.552Z,929.34
2018-12-09T03:51:08.132Z,929.40
2018-12-09T03:52:39.691Z,929.30
2018-12-09T03:54:11.258Z,929.29
2018-12-09T03:55:42.826Z,929.28
2018-12-09T03:57:14.396Z,929.24
2018-12-09T03:58:46.265Z,929.18
2018-12-09T04:00:17.533Z,929.27
2018-12-09T04:01:49.105Z,929.28
2018-12-09T04:03:20.685Z,929.29
2018-12-09T04:04:52.241Z,929.12
2018-12-09T04:06:23.811Z,929.23
2018-12-09T04:07:55.378Z,929.06
2018-12-09T04:09:26.946Z,929.13
2018-12-09T04:10:58.514Z,929.11
2018-12-09T04:12:30.083Z,929.20
2018-12-09T04:14:01.652Z,929.13
2018-12-09T04:15:33.221Z,929.16
2018-12-09T04:17:04.890Z,929.08
2018-12-09T04:18:36.367Z,929.17
2018-12-09T04:20:07.935Z,929.19
2018-12-09T04:21:39.496Z,929.04
2018-12-09T04:23:11.064Z,929.16
2018-12-09T04:24:42.633Z,929.12
2018-12-09T04:26:14.202Z,929.08
2018-12-09T04:27:45.773Z,929.13
2018-12-09T04:29:17.340Z,929.09
2018-12-09T04:30:48.908Z,929.20
2018-12-09T04:32:20.477Z,929.12
2018-12-09T04:33:52.045Z,929.20
2018-12-09T04:35:23.714Z,929.16
2018-12-09T04:36:55.184Z,929.17
2018-12-09T04:38:26.755Z,929.10
2018-12-09T04:39:58.320Z,929.11
2018-12-09T04:41:29.889Z,929.11
2018-12-09T04:43:01.458Z,929.06
2018-12-09T04:44:33.026Z,929.10
2018-12-09T04:46:04.595Z,929.04
2018-12-09T04:47:36.164Z,929.07
2018-12-09T04:49:07.732Z,929.06
2018-12-09T04:50:39.303Z,929.07
2018-12-09T04:52:10.871Z,929.09
2018-12-09T04:53:42.538Z,929.01
2018-12-09T04:55:14.009Z,929.01
2018-12-09T04:56:45.580Z,928.98
2018-12-09T04:58:17.144Z,928.87
2018-12-09T04:59:48.714Z,928.88
2018-12-09T05:01:20.282Z,928.89
2018-12-09T05:02:51.851Z,928.90
2018-12-09T05:04:23.419Z,928.90
2018-12-09T05:05:54.988Z,928.89
2018-12-09T05:07:26.556Z,928.83
2018-12-09T05:08:58.125Z,928.83
2018-12-09T05:10:29.695Z,928.81
2018-12-09T05:12:01.365Z,928.78
2018-12-09T05:13:32.837Z,928.77
2018-12-09T05:15:04.400Z,928.66
2018-12-09T05:16:35.969Z,928.67
2018-12-09T05:18:07.537Z,928.61
2018-12-09T05:19:39.105Z,928.68
2018-12-09T05:21:10.674Z,928.68
2018-12-09T05:22:42.243Z,928.64
2018-12-09T05:24:13.811Z,928.58
2018-12-09T05:25:45.379Z,928.59
2018-12-09T05:27:16.948Z,928.62
2018-12-09T05:28:48.517Z,928.58
2018-12-09T05:30:20.185Z,928.60
2018-12-09T05:31:51.654Z,928.62
2018-12-09T05:33:23.223Z,928.64
2018-12-09T05:34:54.791Z,928.67
2018-12-09T05:36:26.360Z,928.64
2018-12-09T05:37:57.929Z,928.69
2018-12-09T05:39:29.505Z,928.67
2018-12-09T05:41:01.066Z,928.62
2018-12-09T05:42:32.634Z,928.64
2018-12-09T05:44:04.203Z,928.69
2018-12-09T05:45:35.771Z,928.66
2018-12-09T05:47:07.341Z,928.71
2018-12-09T05:48:39.009Z,928.73
2018-12-09T05:50:10.477Z,928.71
2018-12-09T05:51:42.045Z,928.73
2018-12-09T05:53:13.614Z,928.68
2018-12-09T05:54:45.185Z,928.72
2018-12-09T05:56:16.751Z,928.66
2018-12-09T05:57:48.320Z,928.66
2018-12-09T05:59:19.892Z,928.65
2018-12-09T06:00:51.457Z,928.66
2018-12-09T06:02:23.028Z,928.68
2018-12-09T06:03:54.594Z,928.60
2018-12-09T06:05:26.163Z,928.63
2018-12-09T06:06:57.831Z,928.62
2018-12-09T06:08:29.299Z,928.61
2018-12-09T06:10:00.867Z,928.65
2018-12-09T06:11:32.435Z,928.63
2018-12-09T06:13:05.888Z,928.66
2018-12-09T06:14:35.572Z,928.64
2018-12-09T06:16:07.141Z,928.62
2018-12-09T06:17:38.711Z,928.62
2018-12-09T06:19:10.277Z,928.58
2018-12-09T06:20:41.846Z,928.56
2018-12-09T06:22:13.414Z,928.53
2018-12-09T06:23:44.983Z,928.55
2018-12-09T06:25:16.652Z,928.50
2018-12-09T06:26:48.118Z,928.53
2018-12-09T06:28:19.689Z,928.56
2018-12-09T06:29:51.259Z,928.52
2018-12-09T06:31:22.827Z,928.46
2018-12-09T06:32:54.392Z,928.49
2018-12-09T06:34:25.962Z,928.44
2018-12-09T06:35:57.529Z,928.38
2018-12-09T06:37:29.098Z,928.43
2018-12-09T06:39:00.665Z,928.42
2018-12-09T06:40:32.233Z,928.49
2018-12-09T06:42:03.801Z,928.43
2018-12-09T06:43:35.470Z,928.42
2018-12-09T06:45:07.046Z,928.41
2018-12-09T06:46:38.506Z,928.43
2018-12-09T06:48:10.076Z,928.40
2018-12-09T06:49:41.643Z,928.43
2018-12-09T06:51:13.211Z,928.45
2018-12-09T06:52:44.831Z,928.44
2018-12-09T06:54:16.347Z,928.48
2018-12-09T06:55:47.916Z,928.46
2018-12-09T06:57:19.484Z,928.47
2018-12-09T06:58:51.052Z,928.48
2018-12-09T07:00:22.621Z,928.45
2018-12-09T07:01:54.289Z,928.49
2018-12-09T07:03:25.760Z,928.49
2018-12-09T07:04:57.325Z,928.53
2018-12-09T07:06:28.893Z,928.56
2018-12-09T07:08:00.462Z,928.59
2018-12-09T07:09:32.030Z,928.58
2018-12-09T07:11:03.600Z,928.58
2018-12-09T07:12:35.167Z,928.51
2018-12-09T07:14:06.734Z,928.52
2018-12-09T07:15:38.303Z,928.53
2018-12-09T07:17:09.871Z,928.51
2018-12-09T07:18:41.440Z,928.51
2018-12-09T07:20:13.108Z,928.51
2018-12-09T07:21:44.576Z,928.52
2018-12-09T07:23:16.144Z,928.54
2018-12-09T07:24:47.712Z,928.54
2018-12-09T07:26:19.280Z,928.50
2018-12-09T07:27:50.850Z,928.49
2018-12-09T07:29:22.417Z,928.59
2018-12-09T07:30:53.985Z,928.54
2018-12-09T07:32:25.553Z,928.55
2018-12-09T07:33:58.629Z,928.58
2018-12-09T07:35:28.689Z,928.57
2018-12-09T07:37:00.257Z,928.56
2018-12-09T07:38:32.029Z,928.53
2018-12-09T07:40:03.393Z,928.54
2018-12-09T07:41:34.961Z,928.56
2018-12-09T07:43:06.530Z,928.58
2018-12-09T07:44:38.098Z,928.56
2018-12-09T07:46:09.666Z,928.59
2018-12-09T07:47:41.237Z,928.61
2018-12-09T07:49:12.802Z,928.63
2018-12-09T07:50:44.370Z,928.60
2018-12-09T07:52:15.942Z,928.68
2018-12-09T07:53:47.507Z,928.73
2018-12-09T07:55:19.075Z,928.71
2018-12-09T07:56:50.744Z,928.69
2018-12-09T07:58:22.211Z,928.67
2018-12-09T07:59:53.779Z,928.69
2018-12-09T08:01:25.352Z,928.71
2018-12-09T08:02:56.915Z,928.71
2018-12-09T08:04:28.483Z,928.76
2018-12-09T08:06:00.051Z,928.68
2018-12-09T08:07:31.619Z,928.70
2018-12-09T08:09:03.188Z,928.71
2018-12-09T08:10:34.755Z,928.72
2018-12-09T08:12:06.324Z,928.74
2018-12-09T08:13:37.891Z,928.76
2018-12-09T08:15:09.559Z,928.75
2018-12-09T08:16:41.027Z,928.80
2018-12-09T08:18:12.595Z,928.85
2018-12-09T08:19:44.164Z,928.90
2018-12-09T08:21:15.731Z,928.86
2018-12-09T08:22:47.299Z,928.90
2018-12-09T08:24:18.869Z,928.90
2018-12-09T08:25:50.439Z,928.91
2018-12-09T08:27:22.004Z,928.85
2018-12-09T08:28:53.573Z,928.95
2018-12-09T08:30:25.141Z,928.87
2018-12-09T08:31:56.707Z,928.92
2018-12-09T08:33:28.376Z,928.98
2018-12-09T08:34:59.844Z,929.01
2018-12-09T08:36:31.616Z,929.03
2018-12-09T08:38:03.010Z,928.97
2018-12-09T08:39:34.549Z,928.96
2018-12-09T08:41:06.117Z,928.97
2018-12-09T08:42:37.685Z,928.96
2018-12-09T08:44:09.254Z,928.99
2018-12-09T08:45:40.822Z,929.01
2018-12-09T08:47:12.392Z,929.04
2018-12-09T08:48:43.960Z,929.05
2018-12-09T08:50:15.528Z,929.04
2018-12-09T08:51:47.198Z,929.06
2018-12-09T08:53:18.667Z,929.06
2018-12-09T08:54:50.237Z,928.98
2018-12-09T08:56:21.806Z,929.06
2018-12-09T08:57:53.381Z,929.12
2018-12-09T08:59:24.959Z,929.16
2018-12-09T09:00:56.514Z,929.23
2018-12-09T09:02:28.085Z,929.27
2018-12-09T09:03:59.690Z,929.30
2018-12-09T09:05:31.225Z,929.26
2018-12-09T09:07:02.795Z,929.27
2018-12-09T09:08:34.365Z,929.23
2018-12-09T09:10:06.035Z,929.30
2018-12-09T09:13:09.076Z,929.33
2018-12-09T09:14:40.646Z,929.31
2018-12-09T09:17:43.788Z,929.32
2018-12-09T09:19:15.358Z,929.34
2018-12-09T09:20:46.931Z,929.46
2018-12-09T09:22:18.500Z,929.41
2018-12-09T09:23:50.074Z,929.44
2018-12-09T09:25:21.642Z,929.38
2018-12-09T09:26:53.518Z,929.37
2018-12-09T09:28:24.785Z,929.42
2018-12-09T09:29:56.456Z,929.41
2018-12-09T09:31:27.929Z,929.50
2018-12-09T09:32:59.499Z,929.54
2018-12-09T09:34:31.071Z,929.51
2018-12-09T09:36:02.643Z,929.58
2018-12-09T09:37:34.213Z,929.52
2018-12-09T09:39:05.788Z,929.52
2018-12-09T09:40:37.361Z,929.51
2018-12-09T09:42:09.235Z,929.45
2018-12-09T09:43:40.507Z,929.49
2018-12-09T09:45:12.079Z,929.54
2018-12-09T09:46:43.650Z,929.60
2018-12-09T09:48:15.524Z,929.58
2018-12-09T09:49:46.793Z,929.50
2018-12-09T09:51:18.568Z,929.60
2018-12-09T09:52:49.938Z,929.68
2018-12-09T09:54:21.819Z,929.64
2018-12-09T09:58:56.958Z,929.64
2018-12-09T10:00:27.804Z,929.71
2018-12-09T10:01:59.682Z,929.72
2018-12-09T10:03:30.952Z,929.80
2018-12-09T10:05:02.524Z,929.81
2018-12-09T10:06:34.202Z,929.87
2018-12-09T10:09:37.245Z,929.95
2018-12-09T10:11:09.022Z,929.91
2018-12-09T10:12:40.393Z,929.97
2018-12-09T10:14:11.968Z,930.03
2018-12-09T10:15:43.543Z,930.02
2018-12-09T10:17:15.116Z,930.02
2018-12-09T10:18:46.690Z,930.11
2018-12-09T10:20:18.265Z,930.24
2018-12-09T10:21:49.839Z,930.22
2018-12-09T10:23:21.717Z,930.31
2018-12-09T10:24:53.087Z,930.29
2018-12-09T10:26:24.561Z,930.30
2018-12-09T10:27:56.135Z,930.41
2018-12-09T10:29:27.707Z,930.29
2018-12-09T10:30:59.281Z,930.01
2018-12-09T10:32:31.061Z,930.27
2018-12-09T10:34:02.427Z,930.25
2018-12-09T10:35:33.999Z,930.25
2018-12-09T10:37:05.571Z,930.27
2018-12-09T10:38:37.448Z,930.23
2018-12-09T10:41:40.288Z,930.42
2018-12-09T10:44:43.733Z,930.48
2018-12-09T10:46:15.005Z,930.47
2018-12-09T10:49:18.151Z,930.49
2018-12-09T10:50:49.725Z,930.55
2018-12-09T10:52:21.299Z,930.48
2018-12-09T10:53:53.076Z,930.57
2018-12-09T10:56:56.024Z,930.74
2018-12-09T10:58:27.597Z,930.70
2018-12-09T10:59:59.173Z,930.77
2018-12-09T11:01:30.750Z,930.76
2018-12-09T11:03:02.955Z,930.72
2018-12-09T11:04:33.900Z,930.68
2018-12-09T11:06:05.476Z,930.73
2018-12-09T11:09:08.630Z,930.81
2018-12-09T11:10:40.511Z,930.76
2018-12-09T11:12:11.782Z,930.88
2018-12-09T11:13:43.566Z,930.80
2018-12-09T11:15:15.243Z,930.87
2018-12-09T11:16:46.513Z,930.87
2018-12-09T11:18:18.090Z,930.92
2018-12-09T11:19:49.667Z,930.93
2018-12-09T11:21:21.548Z,930.98
2018-12-09T11:22:52.822Z,930.94
2018-12-09T11:24:24.707Z,930.97
2018-12-09T11:25:55.981Z,931.01
2018-12-09T11:27:27.557Z,930.98
2018-12-09T11:29:01.088Z,930.95
2018-12-09T11:30:30.716Z,930.96
2018-12-09T11:32:02.292Z,931.02
2018-12-09T11:33:33.871Z,931.02
2018-12-09T11:35:05.450Z,931.03
2018-12-09T11:36:37.029Z,931.01
2018-12-09T11:38:08.811Z,930.98
2018-12-09T11:39:40.692Z,931.03
2018-12-09T11:41:11.772Z,931.07
2018-12-09T11:42:43.345Z,931.07
2018-12-09T11:44:14.926Z,931.11
2018-12-09T11:45:46.505Z,931.08
2018-12-09T11:47:18.083Z,931.06
2018-12-09T11:48:49.662Z,931.12
2018-12-09T11:50:21.241Z,931.09
2018-12-09T11:51:52.825Z,931.05
2018-12-09T11:53:24.400Z,931.08
2018-12-09T11:54:55.980Z,931.05
2018-12-09T11:56:27.560Z,931.04
2018-12-09T11:57:59.240Z,931.10
2018-12-09T11:59:30.719Z,931.00
2018-12-09T12:01:02.300Z,931.06
2018-12-09T12:02:33.880Z,931.04
2018-12-09T12:04:05.461Z,931.13
2018-12-09T12:05:37.039Z,931.12
2018-12-09T12:07:09.547Z,931.12
2018-12-09T12:08:40.204Z,931.05
2018-12-09T12:10:11.781Z,931.18
2018-12-09T12:11:43.363Z,931.06
2018-12-09T12:13:14.942Z,931.21
2018-12-09T12:14:46.523Z,931.17
2018-12-09T12:16:18.209Z,931.21
2018-12-09T12:17:50.209Z,931.21
2018-12-09T12:19:21.266Z,931.24
2018-12-09T12:20:52.849Z,931.19
2018-12-09T12:22:24.429Z,931.29
2018-12-09T12:23:56.010Z,931.28
2018-12-09T12:25:27.592Z,931.21
2018-12-09T12:26:59.173Z,931.30
2018-12-09T12:28:30.755Z,931.25
2018-12-09T12:30:02.338Z,931.24
2018-12-09T12:31:33.919Z,931.26
2018-12-09T12:33:05.504Z,931.25
2018-12-09T12:36:08.765Z,931.12
2018-12-09T12:37:40.248Z,931.18
2018-12-09T12:39:11.830Z,931.21
2018-12-09T12:40:43.411Z,931.25
2018-12-09T12:42:14.993Z,931.23
2018-12-09T12:43:46.576Z,931.24
2018-12-09T12:46:50.046Z,931.12
2018-12-09T12:48:21.331Z,931.15
2018-12-09T12:49:52.906Z,931.19
2018-12-09T12:51:24.489Z,931.12
2018-12-09T12:52:56.071Z,931.17
2018-12-09T12:54:27.754Z,931.14
2018-12-09T12:55:59.237Z,931.18
2018-12-09T12:57:30.819Z,931.18
2018-12-09T12:59:02.926Z,931.20
2018-12-09T13:00:33.985Z,931.21
2018-12-09T13:02:05.568Z,931.19
2018-12-09T13:03:37.151Z,931.19
2018-12-09T13:05:09.101Z,931.25
2018-12-09T13:06:40.622Z,931.24
2018-12-09T13:08:11.901Z,931.25
2018-12-09T13:09:43.484Z,931.24
2018-12-09T13:11:15.068Z,931.23
2018-12-09T13:12:46.754Z,931.22
2018-12-09T13:14:18.237Z,931.24
2018-12-09T13:15:49.850Z,931.27
2018-12-09T13:17:21.403Z,931.27
2018-12-09T13:18:52.985Z,931.28
2018-12-09T13:20:24.570Z,931.21
2018-12-09T13:21:56.154Z,931.24
2018-12-09T13:24:59.321Z,931.21
2018-12-09T13:26:30.904Z,931.20
2018-12-09T13:28:02.490Z,931.21
2018-12-09T13:29:34.075Z,931.24
2018-12-09T13:31:05.757Z,931.21
2018-12-09T13:32:37.240Z,931.25
2018-12-09T13:34:08.832Z,931.25
2018-12-09T13:35:40.932Z,931.21
2018-12-09T13:37:12.000Z,931.21
2018-12-09T13:38:43.576Z,931.23
2018-12-09T13:40:15.160Z,931.27
2018-12-09T13:41:47.353Z,931.22
2018-12-09T13:43:18.329Z,931.21
2018-12-09T13:44:49.912Z,931.27
2018-12-09T13:46:21.511Z,931.23
2018-12-09T13:47:53.083Z,931.25
2018-12-09T13:50:56.399Z,931.22
2018-12-09T13:52:27.832Z,931.29
2018-12-09T13:53:59.416Z,931.17
2018-12-09T13:55:31.000Z,931.20
2018-12-09T13:57:02.585Z,931.10
2018-12-09T13:58:34.170Z,931.08
2018-12-09T14:00:06.059Z,931.07
2018-12-09T14:01:37.340Z,931.15
2018-12-09T14:03:08.924Z,931.03
2018-12-09T14:04:40.513Z,931.08
2018-12-09T14:06:12.095Z,931.00
2018-12-09T14:07:43.987Z,931.03
2018-12-09T14:09:15.368Z,930.94
2018-12-09T14:10:46.855Z,930.94
2018-12-09T14:12:18.439Z,930.92
2018-12-09T14:13:50.024Z,930.87
2018-12-09T14:15:21.611Z,930.89
2018-12-09T14:16:53.196Z,930.85
2018-12-09T14:18:24.782Z,930.88
2018-12-09T14:19:56.368Z,930.80
2018-12-09T14:22:59.550Z,930.72
2018-12-09T14:24:31.125Z,930.82
2018-12-09T14:26:02.711Z,930.82
2018-12-09T14:27:36.462Z,930.77
2018-12-09T14:33:40.740Z,930.67
2018-12-09T14:35:12.224Z,930.71
2018-12-09T14:36:43.810Z,930.68
2018-12-09T14:38:15.704Z,930.66
2018-12-09T14:39:46.980Z,930.64
2018-12-09T14:41:18.568Z,930.65
2018-12-09T14:42:50.355Z,930.66
2018-12-09T14:44:21.941Z,930.62
2018-12-09T14:45:53.328Z,930.59
2018-12-09T14:47:24.929Z,930.58
2018-12-09T14:48:56.500Z,930.56
2018-12-09T14:50:28.085Z,930.52
2018-12-09T14:51:59.977Z,930.52
2018-12-09T14:53:31.782Z,930.50
2018-12-09T14:55:02.851Z,930.51
2018-12-09T14:56:34.432Z,930.45
2018-12-09T14:58:06.019Z,930.40
2018-12-09T15:01:09.194Z,930.40
2018-12-09T15:02:40.780Z,930.37
2018-12-09T15:04:12.370Z,930.34
2018-12-09T15:05:43.954Z,930.33
2018-12-09T15:07:15.848Z,930.37
2018-12-09T15:08:47.130Z,930.33
2018-12-09T15:10:18.817Z,930.30
2018-12-09T15:11:50.304Z,930.58
2018-12-09T15:13:21.892Z,930.63
2018-12-09T15:14:53.683Z,930.69
2018-12-09T15:16:25.068Z,930.70
2018-12-09T15:17:56.654Z,930.72
2018-12-09T15:19:28.241Z,930.96
2018-12-09T15:21:00.577Z,930.78
2018-12-09T15:22:31.416Z,930.47
2018-12-09T15:24:03.004Z,930.47
2018-12-09T15:25:34.592Z,930.39
2018-12-09T15:27:06.180Z,930.42
2018-12-09T15:28:38.593Z,930.40
2018-12-09T15:30:09.355Z,930.35
2018-12-09T15:31:40.969Z,930.34
2018-12-09T15:33:12.530Z,930.35
2018-12-09T15:39:18.878Z,930.23
2018-12-09T15:40:50.466Z,930.25
2018-12-09T15:42:22.052Z,930.17
2018-12-09T15:43:53.841Z,930.26
2018-12-09T15:45:26.245Z,930.21
2018-12-09T15:46:56.812Z,930.26
2018-12-09T15:48:28.403Z,930.24
2018-12-09T15:51:31.573Z,930.17
2018-12-09T15:53:03.161Z,930.24
2018-12-09T15:56:06.540Z,930.23
2018-12-09T15:57:37.922Z,930.26
2018-12-09T15:59:10.034Z,930.24
2018-12-09T16:00:41.399Z,930.20
2018-12-09T16:03:44.676Z,930.18
2018-12-09T16:05:15.854Z,930.25
2018-12-09T16:09:50.613Z,930.33
2018-12-09T16:12:53.788Z,930.36
2018-12-09T16:15:57.162Z,930.37
2018-12-09T16:17:28.547Z,930.34
2018-12-09T16:19:00.133Z,930.37
2018-12-09T16:20:31.719Z,930.38
2018-12-09T16:22:03.406Z,930.38
2018-12-09T16:23:35.095Z,930.35
2018-12-09T16:25:06.484Z,930.33
2018-12-09T16:28:09.652Z,930.30
2018-12-09T16:29:41.238Z,930.35
2018-12-09T16:31:12.825Z,930.33
2018-12-09T16:32:45.338Z,930.31
2018-12-09T16:34:16.201Z,930.31
2018-12-09T16:35:47.721Z,930.27
2018-12-09T16:38:50.757Z,930.29
2018-12-09T16:40:22.444Z,930.21
2018-12-09T16:41:54.135Z,930.22
2018-12-09T16:43:25.517Z,930.17
2018-12-09T16:44:57.103Z,930.21
2018-12-09T16:48:00.275Z,930.23
2018-12-09T16:49:31.863Z,930.16
2018-12-09T16:51:03.751Z,930.17
2018-12-09T16:52:35.033Z,930.21
2018-12-09T16:55:38.304Z,930.10
2018-12-09T16:57:09.793Z,930.17
2018-12-09T16:58:41.376Z,930.15
2018-12-09T17:00:12.961Z,930.10
2018-12-09T17:01:44.550Z,930.13
2018-12-09T17:03:16.135Z,930.06
2018-12-09T17:04:47.719Z,930.09
2018-12-09T17:06:19.507Z,930.07
2018-12-09T17:07:50.894Z,930.12
2018-12-09T17:09:22.476Z,930.04
2018-12-09T17:10:54.063Z,930.04
2018-12-09T17:12:25.649Z,929.97
2018-12-09T17:13:58.062Z,930.06
2018-12-09T17:15:29.025Z,929.95
2018-12-09T17:17:00.406Z,930.00
2018-12-09T17:18:31.992Z,929.92
2018-12-09T17:20:06.423Z,930.01
2018-12-09T17:21:35.727Z,929.92
2018-12-09T17:24:38.339Z,930.10
2018-12-09T17:26:09.923Z,930.03
2018-12-09T17:27:42.421Z,930.09
2018-12-09T17:29:13.401Z,930.07
2018-12-09T17:32:16.892Z,930.09
2018-12-09T17:33:47.852Z,930.08
2018-12-09T17:35:19.437Z,930.06
2018-12-09T17:36:51.023Z,930.16
2018-12-09T17:38:22.609Z,930.04
2018-12-09T17:39:54.194Z,929.96
2018-12-09T17:41:25.780Z,929.88
2018-12-09T17:42:57.567Z,929.89
2018-12-09T17:46:00.535Z,929.79
2018-12-09T17:47:32.121Z,929.76
2018-12-09T17:52:06.975Z,930.09
2018-12-09T17:53:38.702Z,930.19
2018-12-09T17:55:10.041Z,930.20
2018-12-09T17:58:13.211Z,930.22
2018-12-09T17:59:44.793Z,930.14
2018-12-09T18:01:16.683Z,930.13
2018-12-09T18:02:47.963Z,930.01
2018-12-09T18:05:51.434Z,929.93
2018-12-09T18:07:22.714Z,930.08
2018-12-09T18:08:54.297Z,929.75
2018-12-09T18:10:25.881Z,930.10
2018-12-09T18:13:29.672Z,930.09
2018-12-09T18:15:00.635Z,930.04
2018-12-09T18:16:32.215Z,929.95
2018-12-09T18:18:03.799Z,929.95
2018-12-09T18:19:35.588Z,929.92
2018-12-09T18:21:07.075Z,929.95
2018-12-09T18:22:38.553Z,929.93
2018-12-09T18:24:10.133Z,929.92
2018-12-09T18:27:13.303Z,929.91
2018-12-09T18:28:44.884Z,929.98
2018-12-09T18:30:16.468Z,929.93
2018-12-09T18:31:48.052Z,929.92
2018-12-09T18:33:19.736Z,929.93
2018-12-09T18:34:51.223Z,929.96
2018-12-09T18:36:22.803Z,929.86
2018-12-09T18:37:54.386Z,929.97
2018-12-09T18:39:25.969Z,929.98
2018-12-09T18:40:57.553Z,929.99
2018-12-09T18:42:29.441Z,929.94
2018-12-09T18:44:00.720Z,929.95
2018-12-09T18:45:32.304Z,929.94
2018-12-09T18:47:03.894Z,930.06
2018-12-09T18:48:35.777Z,930.01
2018-12-09T18:50:07.057Z,930.08
2018-12-09T18:54:42.107Z,930.16
2018-12-09T19:00:48.138Z,930.17
2018-12-09T19:02:20.244Z,930.26
2018-12-09T19:03:51.506Z,930.23
2018-12-09T19:05:22.892Z,930.18
2018-12-09T19:06:54.470Z,930.08
2018-12-09T19:08:26.576Z,930.01
2018-12-09T19:09:57.636Z,929.95
2018-12-09T19:11:29.220Z,929.88
2018-12-09T19:13:01.104Z,929.84
2018-12-09T19:14:32.689Z,929.69
2018-12-09T19:16:03.966Z,929.63
2018-12-09T19:17:36.285Z,929.51
2018-12-09T19:19:07.131Z,929.34
2018-12-09T19:20:38.714Z,929.24
2018-12-09T19:22:10.297Z,929.18
2018-12-09T19:23:41.878Z,929.17
2018-12-09T19:25:13.462Z,929.11
2018-12-09T19:26:45.044Z,929.05
2018-12-09T19:28:16.628Z,928.94
2018-12-09T19:29:48.210Z,928.99
2018-12-09T19:31:20.618Z,929.00
2018-12-09T19:32:51.374Z,928.87
2018-12-09T19:34:23.261Z,928.91
2018-12-09T19:35:54.538Z,928.83
2018-12-09T19:37:26.119Z,928.83
2018-12-09T19:38:57.702Z,928.70
2018-12-09T19:40:29.287Z,928.73
2018-12-09T19:42:00.865Z,928.74
2018-12-09T19:45:04.030Z,928.65
2018-12-09T19:46:35.613Z,928.66
2018-12-09T19:48:07.717Z,928.68
2018-12-09T19:49:38.775Z,928.68
2018-12-09T19:51:10.660Z,928.64
2018-12-09T19:52:41.939Z,928.65
2018-12-09T19:54:13.521Z,928.61
2018-12-09T19:55:45.102Z,928.61
2018-12-09T19:57:16.684Z,928.68
2018-12-09T19:58:48.265Z,928.60
2018-12-09T20:00:19.846Z,928.55
2018-12-09T20:01:51.429Z,928.53
2018-12-09T20:03:23.214Z,928.54
2018-12-09T20:04:54.592Z,928.52
2018-12-09T20:06:26.173Z,928.62
2018-12-09T20:07:57.754Z,928.65
2018-12-09T20:09:29.437Z,928.64
2018-12-09T20:11:00.917Z,928.68
2018-12-09T20:12:32.497Z,928.73
2018-12-09T20:14:04.079Z,928.74
2018-12-09T20:15:35.659Z,928.78